Time;durP1;ratioP1;P1;durP2;ratioP2;P2;SDS_P1;SDS_P2;PMS_P1;PMS_P2;Temp;Humidity;BMP_temperature;BMP_pressure;BME280_temperature;BME280_humidity;BME280_pressure;Samples;Min_cycle;Max_cycle;Signal;HPM_P1;HPM_P2
2022/11/20 00:01:20;;;;;;;;;94.25;71.00;;;;;-8.02;81.99;98198.53;4977695;28;102033;-65
2022/11/20 00:03:47;;;;;;;;;81.75;56.75;;;;;-8.05;82.10;98198.69;4963717;28;102779;-66
2022/11/20 00:06:17;;;;;;;;;86.50;58.25;;;;;-8.08;84.00;98195.44;4974222;28;104318;-65
2022/11/20 00:08:45;;;;;;;;;105.75;74.00;;;;;-8.28;84.20;98168.66;4971652;28;102537;-65
2022/11/20 00:11:21;;;;;;;;;78.50;60.50;;;;;-8.09;84.59;98180.63;4966394;28;102397;-65
2022/11/20 00:13:50;;;;;;;;;81.50;62.50;;;;;-8.03;84.17;98175.00;4963725;28;102398;-65
2022/11/20 00:16:20;;;;;;;;;66.50;51.00;;;;;-7.96;83.31;98185.00;4967522;28;103975;-65
2022/11/20 00:18:47;;;;;;;;;49.50;44.00;;;;;-7.95;83.51;98170.97;4972724;28;102236;-65
2022/11/20 00:21:20;;;;;;;;;26.25;15.75;;;;;-7.94;83.42;98166.56;4969667;28;102249;-66
2022/11/20 00:23:48;;;;;;;;;84.00;65.00;;;;;-8.13;84.62;98172.13;4977949;28;102592;-66
2022/11/20 00:26:18;;;;;;;;;102.25;76.00;;;;;-8.12;85.42;98172.03;4968629;28;104141;-66
2022/11/20 00:28:50;;;;;;;;;89.50;68.00;;;;;-8.13;85.59;98165.09;4966270;28;103509;-65
2022/11/20 00:31:18;;;;;;;;;102.25;72.25;;;;;-8.17;85.40;98163.63;4974764;28;102264;-65
2022/11/20 00:33:45;;;;;;;;;107.50;75.75;;;;;-8.32;86.79;98138.38;4975080;28;102282;-65
2022/11/20 00:36:16;;;;;;;;;117.75;85.00;;;;;-8.13;87.21;98164.25;4972093;28;103965;-68
2022/11/20 00:38:44;;;;;;;;;101.50;72.00;;;;;-8.22;86.47;98149.94;4973879;28;102531;-65
2022/11/20 00:41:14;;;;;;;;;99.25;72.25;;;;;-8.07;86.56;98168.28;4964174;28;102010;-67
2022/11/20 00:43:41;;;;;;;;;107.50;78.75;;;;;-8.16;85.78;98175.78;4957936;28;103774;-66
2022/11/20 00:46:13;;;;;;;;;99.00;66.50;;;;;-8.28;83.52;98173.91;4971462;28;104234;-67
2022/11/20 00:48:40;;;;;;;;;104.50;77.75;;;;;-8.40;83.77;98171.25;4972952;28;102428;-67
2022/11/20 00:51:07;;;;;;;;;62.50;48.50;;;;;-8.32;84.09;98164.59;4970849;28;101888;-64
2022/11/20 00:53:34;;;;;;;;;83.50;54.50;;;;;-8.27;83.09;98178.22;4974250;28;102655;-65
2022/11/20 00:56:07;;;;;;;;;83.75;61.75;;;;;-8.32;83.31;98169.84;4971807;28;104036;-66
2022/11/20 00:58:37;;;;;;;;;59.00;43.75;;;;;-8.44;82.00;98147.00;4972515;28;104724;-66
2022/11/20 01:01:13;;;;;;;;;91.75;66.00;;;;;-8.39;80.84;98165.94;4969286;28;102373;-66
2022/11/20 01:03:44;;;;;;;;;73.75;49.75;;;;;-8.47;81.74;98164.72;4966525;28;102519;-66
2022/11/20 01:06:14;;;;;;;;;78.00;58.00;;;;;-8.55;83.16;98159.91;4975587;28;108740;-64
2022/11/20 01:08:42;;;;;;;;;97.25;72.00;;;;;-8.66;83.22;98157.13;4971532;28;103197;-65
2022/11/20 01:11:13;;;;;;;;;110.75;87.25;;;;;-8.73;84.91;98150.56;4964435;28;102321;-65
2022/11/20 01:13:41;;;;;;;;;109.25;75.00;;;;;-8.79;84.15;98151.81;4978083;28;102393;-65
2022/11/20 01:16:17;;;;;;;;;104.75;73.00;;;;;-8.75;83.77;98149.81;4964863;28;104054;-66
2022/11/20 01:18:46;;;;;;;;;105.25;70.50;;;;;-8.75;85.18;98155.06;4973135;28;103385;-65
2022/11/20 01:21:17;;;;;;;;;121.50;89.25;;;;;-8.80;85.80;98151.88;4962166;28;102813;-65
2022/11/20 01:23:45;;;;;;;;;106.50;74.00;;;;;-8.80;85.23;98151.88;4972199;28;104634;-64
2022/11/20 01:26:18;;;;;;;;;109.25;79.50;;;;;-8.83;84.56;98141.59;4964039;28;108966;-65
2022/11/20 01:28:46;;;;;;;;;107.75;72.25;;;;;-8.77;84.29;98141.22;4965729;28;102329;-65
2022/11/20 01:31:19;;;;;;;;;82.25;59.00;;;;;-8.73;85.41;98145.31;4968266;28;102501;-65
2022/11/20 01:33:49;;;;;;;;;72.00;52.00;;;;;-8.72;84.44;98136.53;4962651;28;103509;-65
2022/11/20 01:36:18;;;;;;;;;99.00;70.25;;;;;-8.69;84.84;98131.94;4974660;28;103987;-65
2022/11/20 01:38:45;;;;;;;;;81.25;57.75;;;;;-8.61;83.43;98131.50;4974756;28;102203;-64
2022/11/20 01:44:00;;;;;;;;;71.25;53.75;;;;;-8.83;83.31;98099.69;4968262;28;102500;-65
2022/11/20 01:46:27;;;;;;;;;64.00;46.00;;;;;-8.67;83.46;98122.22;4966611;28;103974;-64
2022/11/20 01:49:18;;;;;;;;;65.25;48.25;;;;;-8.79;82.25;98112.50;4971689;28;102556;-65
2022/11/20 01:51:50;;;;;;;;;42.00;38.50;;;;;-8.76;82.23;98129.81;4964367;28;103285;-65
2022/11/20 01:54:25;;;;;;;;;56.50;38.75;;;;;-8.87;81.95;98109.47;4969224;28;102684;-65
2022/11/20 01:56:58;;;;;;;;;57.75;44.50;;;;;-8.79;82.62;98117.75;4970785;28;105258;-66
2022/11/20 01:59:28;;;;;;;;;75.00;51.50;;;;;-8.82;82.46;98127.53;4972615;28;102290;-64
2022/11/20 02:01:55;;;;;;;;;55.25;48.00;;;;;-8.85;82.31;98125.13;4960273;28;103096;-65
2022/11/20 02:04:24;;;;;;;;;77.25;58.75;;;;;-8.88;82.79;98130.56;4970517;28;102126;-65
2022/11/20 02:07:07;;;;;;;;;79.25;52.50;;;;;-8.95;81.94;98110.88;4964657;28;103901;-65
2022/11/20 02:09:55;;;;;;;;;90.75;64.50;;;;;-9.03;81.92;98129.69;4965754;28;106105;-65
2022/11/20 02:15:59;;;;;;;;;;;;;;;;;;;;;
2022/11/20 02:18:49;;;;;;;;;86.25;66.25;;;;;-9.08;83.66;98143.06;4958553;28;107373;-65
2022/11/20 02:22:07;;;;;;;;;78.00;57.75;;;;;-9.10;83.80;98137.09;4956457;28;103268;-66
2022/11/20 02:25:05;;;;;;;;;68.75;54.00;;;;;-9.03;83.85;98150.63;4959141;28;102313;-65
2022/11/20 02:27:52;;;;;;;;;30.75;28.25;;;;;-9.05;83.72;98145.47;4964872;28;102395;-65
2022/11/20 02:30:21;;;;;;;;;93.75;70.00;;;;;-9.01;84.05;98154.03;4953425;28;108722;-65
2022/11/20 02:32:48;;;;;;;;;81.75;62.00;;;;;-8.97;83.86;98160.75;4961545;28;102507;-65
2022/11/20 02:35:18;;;;;;;;;68.25;51.75;;;;;-8.89;82.49;98155.06;4966773;28;102547;-64
2022/11/20 02:37:48;;;;;;;;;52.00;40.75;;;;;-8.87;83.07;98150.56;4957612;28;102219;-65
2022/11/20 02:40:15;;;;;;;;;77.00;56.00;;;;;-8.91;81.96;98155.13;4964446;28;113854;-64
2022/11/20 02:42:42;;;;;;;;;53.50;39.50;;;;;-8.94;82.65;98165.81;4966637;28;102877;-65
2022/11/20 02:45:10;;;;;;;;;53.00;44.50;;;;;-8.96;83.42;98162.44;4966357;28;102087;-65
2022/11/20 02:47:37;;;;;;;;;86.75;60.00;;;;;-9.02;82.92;98156.72;4965492;28;102182;-64
2022/11/20 02:50:06;;;;;;;;;63.00;50.25;;;;;-8.95;83.44;98160.66;4957834;28;103992;-64
2022/11/20 02:52:33;;;;;;;;;50.00;41.50;;;;;-8.90;84.63;98162.06;4965416;28;102716;-64
2022/11/20 02:55:00;;;;;;;;;48.50;41.00;;;;;-8.84;84.72;98150.38;4973339;28;103798;-63
2022/11/20 02:57:27;;;;;;;;;40.75;33.00;;;;;-8.77;83.68;98151.69;4963007;28;102386;-65
2022/11/20 02:59:54;;;;;;;;;43.75;32.25;;;;;-8.74;83.67;98151.53;4957779;28;104108;-64
2022/11/20 03:02:22;;;;;;;;;35.00;29.50;;;;;-8.69;81.99;98144.22;4966719;28;102557;-65
2022/11/20 03:04:49;;;;;;;;;51.00;40.75;;;;;-8.76;82.56;98150.75;4960948;28;102272;-65
2022/11/20 03:07:16;;;;;;;;;70.50;53.00;;;;;-8.85;82.06;98144.31;4972882;28;103553;-65
2022/11/20 03:09:43;;;;;;;;;50.75;42.75;;;;;-8.82;83.15;98145.88;4963606;28;108889;-64
2022/11/20 03:12:10;;;;;;;;;40.50;37.00;;;;;-8.76;82.66;98148.13;4972451;28;103937;-64
2022/11/20 03:14:37;;;;;;;;;62.25;50.25;;;;;-8.80;82.34;98144.03;4969836;28;102045;-65
2022/11/20 03:17:03;;;;;;;;;68.00;50.00;;;;;-8.94;82.02;98149.25;4971983;28;102036;-65
2022/11/20 03:19:31;;;;;;;;;91.75;62.75;;;;;-9.04;83.13;98138.47;4970819;28;103974;-65
2022/11/20 03:21:58;;;;;;;;;83.00;64.25;;;;;-9.06;83.33;98141.22;4962483;28;103262;-63
2022/11/20 03:24:25;;;;;;;;;72.00;51.75;;;;;-9.10;84.40;98144.09;4972432;28;102271;-63
2022/11/20 03:26:52;;;;;;;;;56.25;44.25;;;;;-9.00;84.94;98142.59;4961835;28;102264;-64
2022/11/20 03:29:19;;;;;;;;;71.50;53.50;;;;;-8.99;85.59;98146.91;4970326;28;105223;-64
2022/11/20 03:31:46;;;;;;;;;66.50;45.50;;;;;-8.94;84.80;98150.09;4977858;28;102397;-63
2022/11/20 03:34:13;;;;;;;;;41.00;34.25;;;;;-8.86;83.40;98150.47;4974033;28;102088;-63
2022/11/20 03:36:42;;;;;;;;;47.00;37.50;;;;;-8.87;83.13;98142.72;4969189;28;102318;-64
2022/11/20 03:39:09;;;;;;;;;41.25;29.50;;;;;-8.84;82.43;98150.38;4971868;28;104012;-64
2022/11/20 03:41:38;;;;;;;;;16.75;10.25;;;;;-8.80;81.97;98157.97;4960954;28;102397;-65
2022/11/20 03:44:08;;;;;;;;;46.50;39.75;;;;;-8.82;81.33;98148.50;4973263;28;102295;-64
2022/11/20 03:46:35;;;;;;;;;50.00;41.00;;;;;-8.89;81.16;98148.03;4973406;28;102240;-64
2022/11/20 03:49:03;;;;;;;;;43.25;31.50;;;;;-8.91;81.49;98152.50;4971687;28;103519;-64
2022/11/20 03:51:32;;;;;;;;;41.75;34.75;;;;;-8.95;81.22;98140.53;4970873;28;102386;-64
2022/11/20 03:54:04;;;;;;;;;34.00;25.50;;;;;-8.97;81.46;98154.69;4968598;28;101970;-64
2022/11/20 03:56:34;;;;;;;;;68.50;45.00;;;;;-9.07;81.56;98144.75;4959712;28;102622;-64
2022/11/20 03:59:01;;;;;;;;;42.75;36.00;;;;;-9.12;82.72;98152.03;4969020;28;103955;-65
2022/11/20 04:01:32;;;;;;;;;58.25;44.00;;;;;-9.09;83.26;98146.59;4960515;28;102570;-64
2022/11/20 04:04:00;;;;;;;;;42.00;35.25;;;;;-9.07;82.86;98143.91;4967201;28;102117;-63
2022/11/20 04:06:35;;;;;;;;;40.75;29.00;;;;;-9.07;83.36;98147.38;4958582;28;102183;-63
2022/11/20 04:09:02;;;;;;;;;63.00;49.00;;;;;-9.13;82.90;98137.25;4962695;28;103972;-64
2022/11/20 04:11:31;;;;;;;;;36.50;28.00;;;;;-9.08;82.30;98136.97;4973661;28;102291;-65
2022/11/20 04:14:01;;;;;;;;;32.00;27.25;;;;;-9.07;83.33;98131.66;4961004;28;102871;-63
2022/11/20 04:16:34;;;;;;;;;44.50;35.75;;;;;-9.07;82.42;98121.19;4975569;28;102231;-65
2022/11/20 04:19:02;;;;;;;;;46.50;36.00;;;;;-9.04;83.58;98131.47;4972598;28;104040;-65
2022/11/20 04:21:29;;;;;;;;;42.00;35.25;;;;;-9.07;81.96;98110.72;4964607;28;102576;-64
2022/11/20 04:23:57;;;;;;;;;39.75;31.50;;;;;-9.00;82.80;98126.06;4963491;28;102118;-64
2022/11/20 04:26:26;;;;;;;;;43.50;36.00;;;;;-9.01;82.79;98121.75;4958945;28;102150;-64
2022/11/20 04:28:53;;;;;;;;;50.00;43.25;;;;;-9.00;83.12;98118.22;4961026;28;103978;-63
2022/11/20 04:31:23;;;;;;;;;53.00;44.50;;;;;-9.01;83.25;98114.75;4975455;28;102430;-63
2022/11/20 04:33:50;;;;;;;;;53.25;36.25;;;;;-9.09;81.96;98109.94;4972140;28;102097;-65
2022/11/20 04:36:27;;;;;;;;;68.25;48.00;;;;;-9.13;83.11;98102.38;4978247;28;102278;-66
2022/11/20 04:38:56;;;;;;;;;55.50;43.75;;;;;-9.08;82.39;98106.41;4966385;28;108634;-64
2022/11/20 04:41:26;;;;;;;;;39.75;28.50;;;;;-9.05;82.54;98111.44;4964261;28;102309;-63
2022/11/20 04:43:58;;;;;;;;;49.25;40.25;;;;;-9.03;82.31;98103.50;4971184;28;104209;-64
2022/11/20 04:46:27;;;;;;;;;33.50;24.50;;;;;-9.28;82.48;98057.03;4976248;28;102603;-63
2022/11/20 04:48:54;;;;;;;;;39.75;31.50;;;;;-9.12;81.14;98104.06;4970802;28;104053;-65
2022/11/20 04:51:22;;;;;;;;;29.00;22.25;;;;;-9.21;81.37;98097.59;4973388;28;102380;-64
2022/11/20 04:53:49;;;;;;;;;43.25;30.00;;;;;-9.24;80.55;98094.34;4977278;28;102480;-67
2022/11/20 04:56:16;;;;;;;;;28.25;24.75;;;;;-9.25;80.26;98098.72;4975071;28;102160;-63
2022/11/20 04:58:43;;;;;;;;;43.75;38.00;;;;;-9.29;81.04;98088.53;4973747;28;108778;-63
2022/11/20 05:01:16;;;;;;;;;26.25;21.25;;;;;-9.29;80.29;98089.38;4969371;28;103488;-64
2022/11/20 05:03:44;;;;;;;;;50.00;30.50;;;;;-9.28;80.78;98091.06;4972740;28;102418;-64
2022/11/20 05:06:14;;;;;;;;;47.75;34.50;;;;;-9.31;81.95;98088.59;4970917;28;102278;-64
2022/11/20 05:08:41;;;;;;;;;35.50;26.75;;;;;-9.33;81.53;98090.50;4972553;28;104114;-65
2022/11/20 05:11:12;;;;;;;;;33.25;26.25;;;;;-9.30;81.74;98089.44;4971610;28;102186;-64
2022/11/20 05:13:39;;;;;;;;;43.75;29.50;;;;;-9.27;81.52;98097.94;4969178;28;102150;-64
2022/11/20 05:16:12;;;;;;;;;58.25;47.50;;;;;-9.30;81.84;98085.06;4979473;28;101995;-64
2022/11/20 05:18:41;;;;;;;;;45.25;30.25;;;;;-9.31;82.68;98072.91;4974507;28;103998;-64
2022/11/20 05:21:09;;;;;;;;;62.50;44.25;;;;;-9.34;82.33;98077.47;4967347;28;106239;-64
2022/11/20 05:23:37;;;;;;;;;55.75;46.00;;;;;-9.28;82.47;98077.97;4971062;28;102446;-63
2022/11/20 05:26:06;;;;;;;;;48.00;41.75;;;;;-9.28;81.45;98070.13;4971019;28;103767;-63
2022/11/20 05:28:33;;;;;;;;;58.00;45.00;;;;;-9.27;81.78;98069.16;4966719;28;102999;-64
2022/11/20 05:31:08;;;;;;;;;67.75;52.00;;;;;-9.33;81.53;98074.78;4947344;28;102595;-64
2022/11/20 05:33:36;;;;;;;;;44.25;35.75;;;;;-9.29;81.73;98063.19;4971635;28;102076;-64
2022/11/20 05:36:04;;;;;;;;;36.75;35.75;;;;;-9.25;81.10;98072.53;4972192;28;102515;-65
2022/11/20 05:38:31;;;;;;;;;68.00;49.00;;;;;-9.29;80.86;98071.03;4973650;28;103918;-64
2022/11/20 05:41:16;;;;;;;;;43.75;34.50;;;;;-9.32;80.80;98065.97;4972574;28;102596;-64
2022/11/20 05:43:45;;;;;;;;;36.00;27.25;;;;;-9.25;81.36;98075.16;4967439;28;102313;-64
2022/11/20 05:46:15;;;;;;;;;32.50;27.50;;;;;-9.23;81.19;98070.66;4959294;28;102713;-64
2022/11/20 05:48:43;;;;;;;;;24.50;19.25;;;;;-9.21;80.87;98068.81;4970496;28;104003;-64
2022/11/20 05:51:13;;;;;;;;;34.00;28.25;;;;;-9.19;80.95;98061.72;4961240;28;102425;-64
2022/11/20 05:53:40;;;;;;;;;9.75;6.00;;;;;-9.16;80.54;98063.28;4966860;28;102565;-64
2022/11/20 05:56:17;;;;;;;;;5.50;4.50;;;;;-9.18;81.47;98052.91;4970059;28;102471;-64
2022/11/20 05:58:46;;;;;;;;;30.75;26.00;;;;;-9.12;80.33;98064.78;4975791;28;108714;-64
2022/11/20 06:01:16;;;;;;;;;17.00;14.00;;;;;-9.12;79.91;98067.41;4970582;28;103713;-63
2022/11/20 06:03:45;;;;;;;;;39.00;34.25;;;;;-9.14;80.04;98070.09;4976983;28;105331;-63
2022/11/20 06:06:13;;;;;;;;;28.50;25.50;;;;;-9.20;79.54;98069.66;4972990;28;102285;-64
2022/11/20 06:08:41;;;;;;;;;63.75;48.00;;;;;-9.39;80.29;98069.91;4965464;28;104019;-63
2022/11/20 06:11:10;;;;;;;;;83.00;62.50;;;;;-9.56;81.79;98072.69;4965964;28;102800;-63
2022/11/20 06:13:38;;;;;;;;;84.25;63.00;;;;;-9.48;82.58;98073.06;4974325;28;102275;-63
2022/11/20 06:16:09;;;;;;;;;58.75;43.00;;;;;-9.59;82.80;98050.13;4981333;28;102281;-63
2022/11/20 06:18:37;;;;;;;;;58.25;43.00;;;;;-9.38;82.33;98076.81;4977031;28;104016;-63
2022/11/20 06:21:10;;;;;;;;;68.25;46.00;;;;;-9.26;82.16;98086.56;4961945;28;102415;-64
2022/11/20 06:23:37;;;;;;;;;75.50;47.00;;;;;-9.20;82.01;98080.13;4970939;28;102350;-64
2022/11/20 06:26:07;;;;;;;;;49.50;41.00;;;;;-9.18;80.73;98079.09;4972822;28;102460;-64
2022/11/20 06:28:34;;;;;;;;;38.25;30.50;;;;;-9.14;79.87;98075.34;4970304;28;104046;-62
2022/11/20 06:31:02;;;;;;;;;14.50;5.75;;;;;-9.14;80.09;98072.72;4963036;28;102509;-64
2022/11/20 06:33:30;;;;;;;;;27.00;22.00;;;;;-9.06;81.30;98080.97;4971640;28;103773;-64
2022/11/20 06:36:00;;;;;;;;;46.00;37.25;;;;;-9.01;80.65;98083.31;4975085;28;102354;-64
2022/11/20 06:38:34;;;;;;;;;7.75;5.50;;;;;-8.97;81.06;98086.59;4958224;28;103991;-64
2022/11/20 06:41:03;;;;;;;;;36.75;24.25;;;;;-8.97;82.63;98081.34;4970636;28;102429;-64
2022/11/20 06:43:30;;;;;;;;;38.50;30.75;;;;;-8.89;82.71;98071.25;4966258;28;102478;-64
2022/11/20 06:45:59;;;;;;;;;54.50;45.25;;;;;-8.80;82.07;98073.28;4975250;28;103573;-64
2022/11/20 06:48:27;;;;;;;;;52.50;39.00;;;;;-8.88;83.04;98039.72;4969415;28;104016;-64
2022/11/20 06:50:55;;;;;;;;;38.50;33.00;;;;;-8.74;81.96;98058.06;4969261;28;103642;-64
2022/11/20 06:53:23;;;;;;;;;46.75;39.25;;;;;-8.72;82.15;98056.16;4970199;28;102144;-64
2022/11/20 06:55:51;;;;;;;;;63.50;44.00;;;;;-8.68;81.42;98052.41;4966532;28;102398;-63
2022/11/20 06:58:18;;;;;;;;;70.50;57.00;;;;;-8.74;82.07;98044.97;4974898;28;103751;-63
2022/11/20 07:00:45;;;;;;;;;99.50;71.75;;;;;-8.68;83.34;98052.41;4971963;28;102612;-64
2022/11/20 07:03:13;;;;;;;;;75.75;60.50;;;;;-8.60;84.62;98044.91;4950230;28;102101;-64
2022/11/20 07:05:40;;;;;;;;;69.25;53.25;;;;;-8.46;82.91;98038.78;4971329;28;102527;-64
2022/11/20 07:08:08;;;;;;;;;70.50;55.50;;;;;-8.29;83.40;98028.06;4973459;28;104239;-62
2022/11/20 07:10:36;;;;;;;;;54.25;40.00;;;;;-8.12;83.04;98024.34;4970111;28;102276;-62
2022/11/20 07:13:03;;;;;;;;;50.00;39.50;;;;;-8.03;82.85;98028.13;4963283;28;101984;-63
2022/11/20 07:15:30;;;;;;;;;66.00;47.75;;;;;-7.91;83.87;98027.31;4970367;28;102000;-64
2022/11/20 07:18:00;;;;;;;;;40.50;31.50;;;;;-7.79;83.70;98031.78;4967109;28;103956;-63
2022/11/20 07:20:27;;;;;;;;;37.25;27.25;;;;;-7.67;82.53;98031.81;4966233;28;102939;-64
2022/11/20 07:22:58;;;;;;;;;62.75;45.00;;;;;-7.62;81.72;98039.38;4971906;28;102274;-65
2022/11/20 07:25:26;;;;;;;;;54.50;41.50;;;;;-7.61;81.70;98041.06;4966055;28;102014;-64
2022/11/20 07:27:57;;;;;;;;;61.75;46.25;;;;;-7.52;81.28;98031.72;4960567;28;103994;-63
2022/11/20 07:30:24;;;;;;;;;70.75;48.75;;;;;-7.48;82.11;98041.06;4968017;27;102307;-63
2022/11/20 07:32:52;;;;;;;;;63.00;48.00;;;;;-7.43;83.35;98047.66;4972053;28;102306;-65
2022/11/20 07:35:20;;;;;;;;;89.25;63.25;;;;;-7.52;83.52;98050.91;4970910;28;103798;-64
2022/11/20 07:37:48;;;;;;;;;82.50;63.25;;;;;-7.50;82.25;98048.19;4967491;28;104397;-65
2022/11/20 07:40:19;;;;;;;;;94.00;67.25;;;;;-7.52;81.83;98056.16;4967034;28;102484;-64
2022/11/20 07:42:51;;;;;;;;;91.75;68.25;;;;;-7.64;81.76;98050.91;4966775;28;102234;-65
2022/11/20 07:45:19;;;;;;;;;87.00;66.00;;;;;-7.62;82.41;98057.75;4966710;28;102301;-65
2022/11/20 07:47:46;;;;;;;;;83.50;63.25;;;;;-7.61;81.99;98056.81;4966985;28;104020;-64
2022/11/20 07:50:14;;;;;;;;;62.25;46.75;;;;;-7.52;82.22;98050.91;4959448;28;103889;-64
2022/11/20 07:52:41;;;;;;;;;86.75;68.00;;;;;-7.61;82.03;98040.22;4968310;28;102905;-64
2022/11/20 07:55:09;;;;;;;;;102.25;72.25;;;;;-7.73;81.35;98045.31;4968578;28;102420;-64
2022/11/20 07:57:36;;;;;;;;;97.50;70.50;;;;;-7.69;80.79;98044.16;4969838;28;104188;-66
2022/11/20 08:00:05;;;;;;;;;90.00;66.25;;;;;-7.82;81.84;98018.84;4974212;28;106692;-64
2022/11/20 08:02:32;;;;;;;;;60.00;43.25;;;;;-7.50;81.14;98041.16;4960385;28;102580;-66
2022/11/20 08:04:59;;;;;;;;;80.00;56.00;;;;;-7.56;80.79;98053.88;4962971;28;102363;-64
2022/11/20 08:07:26;;;;;;;;;84.00;62.00;;;;;-7.54;80.82;98058.06;4960480;28;104111;-64
2022/11/20 08:09:53;;;;;;;;;89.50;68.00;;;;;-7.56;81.33;98052.06;4965887;28;102805;-64
2022/11/20 08:15:07;;;;;;;;;75.25;59.00;;;;;-7.20;81.03;98061.06;4966433;28;102241;-64
2022/11/20 08:17:39;;;;;;;;;63.25;48.50;;;;;-7.05;80.52;98060.81;4956224;27;104116;-64
2022/11/20 08:20:06;;;;;;;;;60.50;48.00;;;;;-6.88;79.75;98059.66;4961942;28;102697;-65
2022/11/20 08:22:33;;;;;;;;;29.75;24.00;;;;;-6.73;81.38;98058.59;4966679;28;102539;-65
2022/11/20 08:25:00;;;;;;;;;39.25;26.50;;;;;-6.55;81.17;98044.16;4971865;28;104068;-64
2022/11/20 08:27:27;;;;;;;;;36.50;28.50;;;;;-6.29;80.31;98052.81;4963829;28;104108;-65
2022/11/20 08:29:55;;;;;;;;;44.50;36.75;;;;;-6.12;80.28;98046.34;4964242;28;102231;-66
2022/11/20 08:32:22;;;;;;;;;29.50;21.75;;;;;-5.85;80.25;98053.00;4972336;28;102038;-67
2022/11/20 08:34:49;;;;;;;;;20.50;16.00;;;;;-5.57;80.17;98054.44;4963230;28;102282;-67
2022/11/20 08:37:15;;;;;;;;;25.50;21.00;;;;;-5.32;79.24;98063.16;4972001;28;104026;-67
2022/11/20 08:39:42;;;;;;;;;28.00;26.50;;;;;-5.08;79.86;98061.25;4971941;28;102258;-68
2022/11/20 08:42:09;;;;;;;;;34.50;22.00;;;;;-4.85;79.06;98060.34;4972446;28;102194;-68
2022/11/20 08:44:36;;;;;;;;;34.25;30.75;;;;;-4.62;79.67;98062.03;4974185;28;102014;-67
2022/11/20 08:47:03;;;;;;;;;31.50;25.50;;;;;-4.39;79.71;98051.47;4972463;28;103702;-68
2022/11/20 08:49:30;;;;;;;;;22.00;17.50;;;;;-4.17;80.22;98051.44;4973524;28;102273;-68
2022/11/20 08:51:57;;;;;;;;;28.00;27.50;;;;;-3.97;80.07;98055.97;4957855;28;102352;-68
2022/11/20 08:54:24;;;;;;;;;36.75;24.75;;;;;-3.80;79.57;98049.28;4974206;28;102627;-68
2022/11/20 08:56:51;;;;;;;;;40.00;32.75;;;;;-3.59;79.57;98058.09;4964990;28;103976;-67
2022/11/20 08:59:18;;;;;;;;;36.75;27.00;;;;;-3.42;80.20;98054.88;4970977;28;102425;-69
2022/11/20 09:02:05;;;;;;;;;32.67;26.00;;;;;-3.25;80.27;98049.06;4971152;28;102272;-68
2022/11/20 09:04:32;;;;;;;;;44.75;39.25;;;;;-3.10;80.42;98048.72;4972840;28;103100;-68
2022/11/20 09:07:00;;;;;;;;;46.25;35.00;;;;;-2.93;80.70;98048.97;4972298;28;103618;-66
2022/11/20 09:09:27;;;;;;;;;38.33;34.00;;;;;-2.78;80.42;98047.66;4971746;28;102814;-68
2022/11/20 09:11:54;;;;;;;;;34.33;24.67;;;;;-2.64;79.67;98042.97;4954335;28;102680;-67
2022/11/20 09:14:21;;;;;;;;;30.00;25.00;;;;;-2.50;80.29;98039.97;4963896;28;102310;-68
2022/11/20 09:16:48;;;;;;;;;47.67;38.00;;;;;-2.78;81.45;97988.63;4971797;28;104086;-71
2022/11/20 09:19:15;;;;;;;;;94.00;69.50;;;;;-2.64;82.64;98024.47;4973372;28;102393;-69
2022/11/20 09:22:02;;;;;;;;;94.25;67.25;;;;;-2.35;83.04;98043.94;4965303;28;103784;-69
2022/11/20 09:24:29;;;;;;;;;70.00;52.25;;;;;-2.25;82.12;98031.56;4969785;28;102318;-68
2022/11/20 09:26:56;;;;;;;;;45.25;44.00;;;;;-2.10;81.97;98038.16;4972615;28;103977;-68
2022/11/20 09:29:23;;;;;;;;;43.50;37.25;;;;;-1.94;79.42;98033.19;4958881;28;102354;-69
2022/11/20 09:31:50;;;;;;;;;38.00;34.00;;;;;-1.83;79.49;98035.69;4955651;28;102354;-70
2022/11/20 09:34:17;;;;;;;;;33.00;30.00;;;;;-1.67;79.06;98039.63;4964884;28;102499;-70
2022/11/20 09:36:44;;;;;;;;;28.00;23.00;;;;;-1.56;78.92;98028.88;4971705;28;104093;-70
2022/11/20 09:39:11;;;;;;;;;24.00;15.33;;;;;-1.48;78.51;98029.00;4971284;28;102280;-70
2022/11/20 09:41:45;;;;;;;;;22.33;17.33;;;;;-1.33;79.41;98040.03;4971955;28;102986;-71
2022/11/20 09:44:27;;;;;;;;;23.33;20.00;;;;;-1.22;78.94;98040.75;4969493;28;102158;-71
2022/11/20 09:47:08;;;;;;;;;18.33;17.00;;;;;-1.13;78.65;98041.69;4970280;28;108487;-70
2022/11/20 09:49:44;;;;;;;;;33.67;30.00;;;;;-1.20;77.58;98033.47;4971606;28;102787;-70
2022/11/20 09:52:26;;;;;;;;;49.33;41.00;;;;;-1.23;79.16;98041.72;4953760;28;102208;-72
2022/11/20 09:54:54;;;;;;;;;42.00;35.00;;;;;-1.13;79.01;98028.44;4974117;28;106248;-72
2022/11/20 09:57:29;;;;;;;;;42.00;33.67;;;;;-1.08;79.02;98032.31;4971730;28;108710;-72
2022/11/20 10:00:02;;;;;;;;;38.33;31.67;;;;;-1.06;78.69;98022.41;4967197;28;102175;-72
2022/11/20 10:02:39;;;;;;;;;50.00;38.67;;;;;-0.90;78.86;98014.69;4971815;28;102443;-73
2022/11/20 10:05:17;;;;;;;;;37.00;32.67;;;;;-0.91;79.12;98021.00;4967939;28;102221;-73
2022/11/20 10:07:56;;;;;;;;;38.00;31.67;;;;;-0.72;78.57;98014.75;4950643;28;104033;-72
2022/11/20 10:10:34;;;;;;;;;29.00;28.00;;;;;-0.66;77.73;97992.13;4971951;28;102219;-72
2022/11/20 10:13:21;;;;;;;;;16.67;12.00;;;;;-0.49;77.22;98008.13;4969296;28;109658;-73
2022/11/20 10:16:26;;;;;;;;;20.33;18.67;;;;;-0.35;76.60;98003.28;4971250;28;102421;-72
2022/11/20 10:19:18;;;;;;;;;27.00;19.67;;;;;-0.23;75.95;97995.00;4970240;28;108625;-73
2022/11/20 10:21:54;;;;;;;;;14.00;13.33;;;;;-0.11;75.62;97991.16;4960998;28;102367;-73
2022/11/20 10:24:24;;;;;;;;;18.00;16.67;;;;;-0.04;75.05;97986.91;4968111;28;102440;-72
2022/11/20 10:26:59;;;;;;;;;8.00;6.00;;;;;0.00;74.81;97988.25;4968960;28;102816;-72
2022/11/20 10:29:34;;;;;;;;;9.00;8.33;;;;;0.07;74.67;97990.34;4953605;28;108528;-73
2022/11/20 10:32:09;;;;;;;;;8.00;6.33;;;;;0.05;73.68;97997.59;4965218;28;102386;-73
2022/11/20 10:35:04;;;;;;;;;18.00;15.33;;;;;0.00;74.49;97996.25;4962478;28;102480;-73
2022/11/20 10:37:37;;;;;;;;;10.33;8.67;;;;;0.02;75.37;97992.59;4961411;28;103727;-73
2022/11/20 10:40:27;;;;;;;;;15.67;12.00;;;;;0.06;75.54;97988.66;4968000;28;103957;-73
2022/11/20 10:43:01;;;;;;;;;18.67;13.00;;;;;0.10;75.34;97971.41;4964302;28;102637;-72
2022/11/20 10:45:40;;;;;;;;;16.00;12.67;;;;;0.17;74.55;97967.19;4967449;28;102045;-73
2022/11/20 10:48:07;;;;;;;;;15.67;15.00;;;;;0.20;74.02;97969.53;4963115;28;102103;-72
2022/11/20 10:50:40;;;;;;;;;18.33;15.00;;;;;0.21;74.32;97973.88;4963619;28;103981;-72
2022/11/20 10:53:23;;;;;;;;;20.00;16.00;;;;;0.27;74.64;97962.63;4968829;28;102507;-73
2022/11/20 10:56:05;;;;;;;;;16.67;13.67;;;;;0.35;73.96;97960.88;4960315;28;104335;-73
2022/11/20 10:58:42;;;;;;;;;15.67;14.67;;;;;0.39;74.55;97962.25;4963168;28;102407;-73
2022/11/20 11:01:16;;;;;;;;;16.67;14.00;;;;;0.48;73.80;97957.81;4960573;28;105908;-73
2022/11/20 11:03:43;;;;;;;;;14.33;11.33;;;;;0.44;73.71;97932.53;4965343;28;104018;-73
2022/11/20 11:06:35;;;;;;;;;15.00;12.00;;;;;0.64;73.41;97954.44;4958773;28;102413;-72
2022/11/20 11:09:11;;;;;;;;;11.33;9.00;;;;;0.64;73.07;97947.31;4960874;27;102602;-72
2022/11/20 11:11:38;;;;;;;;;16.00;12.00;;;;;0.58;73.87;97934.66;4966068;28;103898;-71
2022/11/20 11:14:14;;;;;;;;;8.00;4.67;;;;;0.69;72.26;97942.34;4969166;28;102506;-72
2022/11/20 11:16:56;;;;;;;;;20.00;13.67;;;;;0.74;72.76;97944.56;4969478;28;103572;-72
2022/11/20 11:19:24;;;;;;;;;18.67;16.33;;;;;0.72;72.52;97943.88;4966732;28;102506;-72
2022/11/20 11:21:59;;;;;;;;;20.33;18.33;;;;;0.69;72.44;97937.03;4968291;28;110118;-72
2022/11/20 11:24:29;;;;;;;;;20.67;15.67;;;;;0.67;73.12;97939.03;4961438;28;102391;-72
2022/11/20 11:27:13;;;;;;;;;23.33;20.00;;;;;0.67;73.22;97936.38;4967728;28;102304;-72
2022/11/20 11:29:44;;;;;;;;;22.00;17.00;;;;;0.68;73.72;97946.00;4961841;28;102233;-71
2022/11/20 11:32:14;;;;;;;;;21.33;17.67;;;;;0.70;73.94;97949.34;4966690;28;103003;-72
2022/11/20 11:34:41;;;;;;;;;26.00;20.33;;;;;0.70;72.74;97943.19;4968312;28;102844;-72
2022/11/20 11:37:23;;;;;;;;;14.67;13.00;;;;;0.75;72.81;97939.09;4964298;28;103300;-72